Time;durP1;ratioP1;P1;durP2;ratioP2;P2;SDS_P1;SDS_P2;PMS_P1;PMS_P2;Temp;Humidity;BMP_temperature;BMP_pressure;BME280_temperature;BME280_humidity;BME280_pressure;Samples;Min_cycle;Max_cycle;Signal;HPM_P1;HPM_P2
2022/08/29 00:01:26;;;;;;;13.65;6.47;;;;;;;26.57;45.95;99463.03;5049222;28;20445;-37
2022/08/29 00:03:55;;;;;;;12.02;6.40;;;;;;;26.32;47.17;99460.69;5047947;28;20021;-37
2022/08/29 00:06:21;;;;;;;9.75;6.47;;;;;;;26.38;47.02;99463.28;5048969;28;20025;-42
2022/08/29 00:08:47;;;;;;;9.15;6.45;;;;;;;26.52;46.89;99463.97;5049299;28;20036;-38
2022/08/29 00:11:13;;;;;;;11.73;6.50;;;;;;;26.83;46.26;99461.19;5048632;28;20484;-38
2022/08/29 00:13:39;;;;;;;11.60;6.68;;;;;;;26.48;47.21;99465.72;5049069;28;20540;-38
2022/08/29 00:16:05;;;;;;;12.45;6.93;;;;;;;26.26;48.26;99466.63;5048897;28;20049;-38
2022/08/29 00:18:31;;;;;;;13.40;6.13;;;;;;;26.12;48.74;99477.59;5048971;28;20112;-37
2022/08/29 00:20:57;;;;;;;11.15;6.55;;;;;;;26.25;48.19;99468.53;5048994;28;20067;-37
2022/08/29 00:23:22;;;;;;;13.55;6.80;;;;;;;26.59;47.10;99474.44;5049379;28;20060;-38
2022/08/29 00:25:48;;;;;;;9.50;6.68;;;;;;;26.23;48.35;99470.75;5049732;28;20029;-36
2022/08/29 00:28:13;;;;;;;10.93;6.72;;;;;;;25.97;48.42;99467.94;5049932;28;20552;-37
2022/08/29 00:30:40;;;;;;;15.48;6.60;;;;;;;25.92;48.16;99466.13;5049904;28;20040;-36
2022/08/29 00:33:06;;;;;;;13.52;6.15;;;;;;;26.05;47.59;99466.38;5049455;28;20094;-37
2022/08/29 00:35:34;;;;;;;8.80;6.13;;;;;;;26.25;46.81;99465.00;5049826;28;20181;-37
2022/08/29 00:38:02;;;;;;;12.02;6.82;;;;;;;26.43;47.06;99469.41;5050286;28;20029;-37
2022/08/29 00:40:32;;;;;;;10.23;6.22;;;;;;;26.01;48.07;99465.34;5050292;28;20094;-37
2022/08/29 00:42:57;;;;;;;12.25;6.47;;;;;;;25.86;48.47;99464.63;5049700;28;20104;-38
2022/08/29 00:45:23;;;;;;;12.40;6.20;;;;;;;26.00;48.27;99469.22;5049936;28;20097;-37
2022/08/29 00:47:57;;;;;;;12.40;6.70;;;;;;;26.21;47.32;99473.00;5050030;28;20060;-37
2022/08/29 00:50:47;;;;;;;9.73;6.80;;;;;;;26.45;46.32;99475.34;5049936;28;20029;-37
2022/08/29 00:53:18;;;;;;;10.75;6.32;;;;;;;25.90;47.96;99481.16;5049597;28;20029;-38
2022/08/29 00:55:46;;;;;;;8.85;6.15;;;;;;;25.55;48.77;99478.19;5049407;28;20028;-37
2022/08/29 00:58:20;;;;;;;12.48;6.63;;;;;;;25.70;48.95;99480.56;5049503;28;20025;-37
2022/08/29 01:00:47;;;;;;;12.05;6.28;;;;;;;25.83;48.58;99475.34;5049587;28;20032;-37
2022/08/29 01:03:13;;;;;;;9.70;6.22;;;;;;;26.37;47.23;99476.13;5050343;28;20112;-37
2022/08/29 01:05:41;;;;;;;13.02;6.70;;;;;;;25.90;48.67;99468.34;5053908;28;20591;-37
2022/08/29 01:08:07;;;;;;;13.48;7.22;;;;;;;25.61;49.38;99468.81;5054054;28;20079;-39
2022/08/29 01:13:22;;;;;;;10.48;7.43;;;;;;;25.33;48.72;99482.53;5053346;28;20120;-37
2022/08/29 01:15:49;;;;;;;14.10;7.80;;;;;;;26.01;47.41;99484.44;5053974;28;20032;-37
2022/08/29 01:18:17;;;;;;;12.43;7.57;;;;;;;25.11;49.53;99477.84;5053555;28;20446;-37
2022/08/29 01:20:51;;;;;;;13.40;7.45;;;;;;;25.16;49.71;99477.72;5053063;28;20118;-37
2022/08/29 01:23:43;;;;;;;13.30;7.68;;;;;;;25.09;51.21;99476.53;5053427;28;20025;-37
2022/08/29 01:26:11;;;;;;;13.18;6.95;;;;;;;25.25;50.61;99475.09;5053446;28;20029;-37
2022/08/29 01:28:40;;;;;;;13.60;7.28;;;;;;;25.93;48.57;99475.94;5053382;28;20033;-37
2022/08/29 01:31:15;;;;;;;14.10;7.68;;;;;;;25.36;50.59;99476.47;5053503;28;20032;-36
2022/08/29 01:33:50;;;;;;;11.45;6.75;;;;;;;25.14;51.36;99481.84;5053366;28;20081;-37
2022/08/29 01:36:25;;;;;;;14.15;7.03;;;;;;;25.00;51.91;99481.06;5052722;28;20443;-37
2022/08/29 01:38:51;;;;;;;10.88;6.43;;;;;;;25.01;51.74;99483.50;5053167;28;20090;-37
2022/08/29 01:41:19;;;;;;;13.18;6.85;;;;;;;24.97;51.95;99480.56;5053130;28;20029;-37
2022/08/29 01:43:51;;;;;;;14.52;7.05;;;;;;;25.56;50.37;99477.09;5052869;28;20083;-38
2022/08/29 01:46:26;;;;;;;10.88;7.15;;;;;;;25.05;51.82;99478.25;5052667;28;20025;-38
2022/08/29 01:48:51;;;;;;;13.48;7.25;;;;;;;24.83;52.24;99481.72;5053231;28;20381;-38
2022/08/29 01:51:17;;;;;;;15.45;7.38;;;;;;;24.95;51.52;99471.13;5053036;28;20030;-37
2022/08/29 01:53:44;;;;;;;11.50;6.85;;;;;;;25.04;51.71;99477.44;5053127;28;20032;-37
2022/08/29 01:56:18;;;;;;;12.80;7.20;;;;;;;25.51;49.94;99463.59;5052381;28;20480;-37
2022/08/29 01:58:47;;;;;;;9.80;7.10;;;;;;;25.26;51.33;99467.72;5052652;28;20028;-37
2022/08/29 02:01:15;;;;;;;12.48;7.32;;;;;;;24.95;52.17;99474.63;5052887;28;20036;-37
2022/08/29 02:03:40;;;;;;;14.38;7.88;;;;;;;24.99;52.19;99477.56;5053105;28;20056;-38
2022/08/29 02:06:08;;;;;;;13.23;7.20;;;;;;;25.01;52.15;99472.59;5052790;28;20413;-38
2022/08/29 02:08:36;;;;;;;12.27;7.43;;;;;;;25.00;52.41;99473.72;5052389;28;20029;-38
2022/08/29 02:11:01;;;;;;;19.02;7.88;;;;;;;25.77;49.95;99471.94;5052498;28;20029;-38
2022/08/29 02:13:28;;;;;;;16.23;7.70;;;;;;;25.09;52.00;99485.50;5052568;28;20036;-38
2022/08/29 02:15:53;;;;;;;14.52;7.65;;;;;;;24.42;53.00;99480.59;5051416;28;20109;-38
2022/08/29 02:18:20;;;;;;;13.20;7.90;;;;;;;24.23;53.48;99477.16;5051906;28;20115;-38
2022/08/29 02:20:45;;;;;;;15.20;8.10;;;;;;;24.05;54.66;99484.31;5052479;28;20469;-38
2022/08/29 02:23:11;;;;;;;13.02;7.47;;;;;;;24.73;52.40;99483.56;5051823;28;20070;-37
2022/08/29 02:25:40;;;;;;;16.58;7.68;;;;;;;25.13;51.25;99483.78;5050745;28;20025;-37
2022/08/29 02:28:07;;;;;;;10.55;7.55;;;;;;;24.71;52.56;99487.66;5052055;28;20465;-37
2022/08/29 02:30:33;;;;;;;24.75;8.48;;;;;;;23.94;54.81;99484.47;5052402;28;20400;-37
2022/08/29 02:32:58;;;;;;;21.08;8.57;;;;;;;23.57;56.41;99486.16;5052251;28;20033;-37
2022/08/29 02:35:24;;;;;;;17.42;7.78;;;;;;;23.61;55.97;99491.81;5052115;28;20095;-37
2022/08/29 02:37:51;;;;;;;14.70;7.53;;;;;;;24.16;53.74;99491.97;5052093;28;20652;-37
2022/08/29 02:40:16;;;;;;;13.57;7.60;;;;;;;24.10;53.74;99489.63;5051798;28;20104;-37
2022/08/29 02:42:42;;;;;;;18.95;8.15;;;;;;;23.75;54.55;99495.34;5051891;28;20121;-37
2022/08/29 02:45:08;;;;;;;17.73;8.43;;;;;;;23.58;55.33;99492.38;5052282;28;20082;-37
2022/08/29 02:47:35;;;;;;;16.65;7.95;;;;;;;23.69;54.49;99493.84;5051697;28;20056;-37
2022/08/29 02:50:04;;;;;;;13.63;7.57;;;;;;;24.00;53.68;99493.34;5051500;28;20017;-37
2022/08/29 02:52:30;;;;;;;16.73;7.88;;;;;;;23.93;54.05;99507.31;5051844;28;20017;-37
2022/08/29 02:54:55;;;;;;;20.05;7.75;;;;;;;23.51;55.28;99510.94;5051627;28;20100;-37
2022/08/29 02:57:21;;;;;;;18.33;7.65;;;;;;;23.42;55.40;99508.91;5051484;28;20029;-42
2022/08/29 02:59:46;;;;;;;32.53;9.60;;;;;;;23.26;55.68;99507.50;5051722;28;20021;-37
2022/08/29 03:02:12;;;;;;;15.98;8.45;;;;;;;23.43;55.44;99520.56;5051118;28;20039;-36
2022/08/29 03:04:38;;;;;;;14.52;8.07;;;;;;;24.09;53.52;99521.44;5051619;28;20018;-37
2022/08/29 03:07:04;;;;;;;16.70;8.13;;;;;;;23.48;55.03;99520.50;5051398;28;20020;-37
2022/08/29 03:09:29;;;;;;;16.95;8.57;;;;;;;23.17;56.17;99520.94;5050841;28;20393;-36
2022/08/29 03:11:55;;;;;;;15.50;7.97;;;;;;;23.10;56.61;99515.06;5050928;28;20028;-37
2022/08/29 03:14:21;;;;;;;22.20;8.48;;;;;;;23.29;56.13;99533.28;5051308;28;20033;-36
2022/08/29 03:16:47;;;;;;;22.23;9.23;;;;;;;23.85;54.50;99529.72;5051078;28;20491;-37
2022/08/29 03:19:12;;;;;;;17.88;8.50;;;;;;;23.08;56.48;99532.75;5051305;28;20179;-36
2022/08/29 03:21:38;;;;;;;15.20;8.45;;;;;;;22.97;57.53;99535.53;5050910;28;20028;-36
2022/08/29 03:24:03;;;;;;;17.30;8.20;;;;;;;23.10;57.00;99533.25;5051409;28;20017;-36
2022/08/29 03:26:29;;;;;;;17.67;8.95;;;;;;;23.21;56.46;99532.03;5050636;28;20610;-37
2022/08/29 03:28:54;;;;;;;16.33;8.60;;;;;;;23.56;56.06;99535.31;5051250;28;20037;-36
2022/08/29 03:31:20;;;;;;;19.08;8.85;;;;;;;23.96;54.78;99524.94;5050692;28;20032;-36
2022/08/29 03:33:46;;;;;;;18.75;8.90;;;;;;;23.52;55.92;99532.38;5050345;28;20074;-36
2022/08/29 03:36:12;;;;;;;12.48;8.35;;;;;;;23.41;55.91;99534.44;5050562;28;20033;-36
2022/08/29 03:38:38;;;;;;;22.20;8.80;;;;;;;23.39;56.20;99533.91;5050635;28;20025;-37
2022/08/29 03:41:05;;;;;;;15.60;9.00;;;;;;;23.48;55.80;99531.38;5051007;28;20143;-37
2022/08/29 03:43:30;;;;;;;29.65;15.23;;;;;;;23.95;54.25;99526.84;5050759;28;20021;-36
2022/08/29 03:45:56;;;;;;;19.52;10.10;;;;;;;23.96;54.08;99528.44;5050475;28;20048;-37
2022/08/29 03:48:21;;;;;;;38.20;21.50;;;;;;;23.52;55.36;99528.88;5050420;28;20021;-36
2022/08/29 03:50:47;;;;;;;25.77;10.70;;;;;;;23.42;56.38;99527.13;5050526;28;20070;-37
2022/08/29 03:53:12;;;;;;;17.08;9.20;;;;;;;23.34;57.09;99530.47;5050680;28;20257;-37
2022/08/29 03:55:38;;;;;;;22.17;9.25;;;;;;;23.72;55.42;99531.28;5050667;28;20072;-37
2022/08/29 03:58:04;;;;;;;20.30;9.05;;;;;;;23.75;55.19;99535.31;5050746;28;20032;-37
2022/08/29 04:00:29;;;;;;;21.08;9.02;;;;;;;23.47;56.15;99534.38;5050294;28;20025;-37
2022/08/29 04:02:57;;;;;;;17.48;9.23;;;;;;;23.34;56.67;99535.91;5050847;28;20044;-37
2022/08/29 04:05:22;;;;;;;16.65;8.63;;;;;;;23.32;56.95;99538.94;5050437;28;20843;-38
2022/08/29 04:07:51;;;;;;;22.10;9.82;;;;;;;23.44;56.88;99546.63;5050275;28;20104;-37
2022/08/29 04:10:26;;;;;;;20.02;9.52;;;;;;;24.07;54.87;99531.00;5050115;28;20063;-37
2022/08/29 04:12:52;;;;;;;17.25;9.05;;;;;;;23.64;55.86;99556.38;5050541;28;20103;-35
2022/08/29 04:15:17;;;;;;;23.08;8.75;;;;;;;23.56;56.51;99555.13;5050454;28;20112;-37
2022/08/29 04:17:43;;;;;;;49.53;29.88;;;;;;;23.81;55.45;99566.75;5045748;28;20048;-37
2022/08/29 04:20:10;;;;;;;60.03;34.63;;;;;;;24.05;54.65;99561.19;5039439;28;20022;-37
2022/08/29 04:22:37;;;;;;;31.10;17.98;;;;;;;24.81;52.61;99560.94;5030343;28;20017;-37
2022/08/29 04:25:05;;;;;;;17.02;9.45;;;;;;;24.26;53.85;99572.53;5032970;28;20136;-38
2022/08/29 04:27:31;;;;;;;21.05;9.93;;;;;;;24.13;54.12;99576.81;5057291;28;20035;-38
2022/08/29 04:29:56;;;;;;;22.95;9.55;;;;;;;24.33;53.61;99583.00;5068513;28;20029;-36
2022/08/29 04:32:22;;;;;;;19.40;10.00;;;;;;;24.41;54.17;99587.78;5068193;28;20025;-37
2022/08/29 04:34:47;;;;;;;22.33;9.55;;;;;;;25.04;52.54;99580.09;5069387;28;20032;-37
2022/08/29 04:37:13;;;;;;;17.90;9.27;;;;;;;24.88;53.14;99583.09;5067833;28;20034;-37
2022/08/29 04:39:39;;;;;;;20.02;9.65;;;;;;;24.73;53.52;99569.78;5067035;28;20047;-37
2022/08/29 04:42:05;;;;;;;15.93;8.60;;;;;;;25.11;52.13;99585.91;5067476;28;20508;-37
2022/08/29 04:44:31;;;;;;;25.65;9.57;;;;;;;25.28;52.14;99577.94;5067883;28;20052;-37
2022/08/29 04:46:56;;;;;;;23.15;9.45;;;;;;;25.75;50.89;99573.06;5067203;28;20064;-38
2022/08/29 04:49:22;;;;;;;27.20;9.38;;;;;;;26.00;50.20;99581.78;5067510;28;20114;-37
2022/08/29 04:51:50;;;;;;;27.02;10.00;;;;;;;25.59;51.17;99587.34;5067875;28;20086;-37
2022/08/29 04:54:15;;;;;;;26.73;9.18;;;;;;;25.42;51.49;99591.56;5068063;28;20071;-37
2022/08/29 04:56:41;;;;;;;22.35;10.80;;;;;;;25.59;51.21;99590.91;5067759;28;20104;-37
2022/08/29 04:59:07;;;;;;;24.77;12.90;;;;;;;25.63;51.58;99593.81;5067931;28;20079;-36
2022/08/29 05:01:32;;;;;;;19.15;9.32;;;;;;;26.02;49.88;99587.72;5058680;28;20457;-37
2022/08/29 05:03:58;;;;;;;18.88;9.65;;;;;;;25.62;51.23;99600.38;5049079;28;20031;-37
2022/08/29 05:06:24;;;;;;;30.48;18.15;;;;;;;25.54;51.20;99593.72;5048899;28;20529;-36
2022/08/29 05:08:51;;;;;;;22.95;13.00;;;;;;;25.60;51.31;99603.41;5049212;28;20024;-37
2022/08/29 05:11:18;;;;;;;29.58;12.98;;;;;;;25.58;51.31;99594.72;5049532;28;20079;-37
2022/08/29 05:13:45;;;;;;;70.55;47.85;;;;;;;26.25;50.19;99601.34;5049273;28;20467;-37
2022/08/29 05:16:13;;;;;;;35.05;20.00;;;;;;;25.67;52.38;99605.72;5048965;28;20118;-37
2022/08/29 05:18:39;;;;;;;18.38;10.07;;;;;;;25.74;52.71;99604.19;5049417;28;20036;-36
2022/08/29 05:21:05;;;;;;;22.88;9.77;;;;;;;26.08;52.30;99607.50;5049177;28;20036;-37
2022/08/29 05:23:30;;;;;;;14.48;9.10;;;;;;;26.68;49.43;99606.28;5049672;28;20412;-36
2022/08/29 05:25:58;;;;;;;15.57;9.23;;;;;;;27.63;47.12;99603.00;5049188;28;20112;-39
2022/08/29 05:28:25;;;;;;;15.10;8.75;;;;;;;27.74;45.74;99611.69;5049474;28;20392;-37
2022/08/29 05:30:50;;;;;;;16.83;8.98;;;;;;;27.72;45.70;99610.38;5048787;28;20548;-37
2022/08/29 05:33:16;;;;;;;18.50;8.90;;;;;;;28.03;45.05;99615.72;5048854;28;20104;-37
2022/08/29 05:35:42;;;;;;;19.02;8.77;;;;;;;28.39;43.75;99617.28;5049169;28;20116;-37
2022/08/29 05:38:08;;;;;;;19.77;8.75;;;;;;;29.18;42.89;99617.81;5049063;28;20061;-37
2022/08/29 05:40:35;;;;;;;18.35;9.43;;;;;;;29.95;40.45;99609.34;5049076;28;20104;-38
2022/08/29 05:43:00;;;;;;;19.52;11.55;;;;;;;29.50;40.57;99621.78;5048982;28;20075;-38
2022/08/29 05:45:26;;;;;;;19.25;9.10;;;;;;;29.28;41.06;99611.94;5049092;28;20449;-37
2022/08/29 05:47:51;;;;;;;20.10;8.68;;;;;;;29.57;40.56;99607.56;5049388;28;20405;-36
2022/08/29 05:50:17;;;;;;;20.88;8.13;;;;;;;29.98;39.58;99617.72;5051169;28;20493;-37
2022/08/29 05:52:43;;;;;;;15.48;8.25;;;;;;;30.99;38.05;99616.47;5052282;28;20109;-37
2022/08/29 05:55:09;;;;;;;20.05;8.38;;;;;;;30.52;38.90;99614.16;5052833;28;20040;-38
2022/08/29 05:57:34;;;;;;;17.17;9.27;;;;;;;30.39;38.63;99618.81;5052653;28;20074;-36
2022/08/29 06:00:00;;;;;;;19.30;8.73;;;;;;;30.64;37.97;99618.06;5052289;28;20458;-38
2022/08/29 06:02:26;;;;;;;13.80;7.97;;;;;;;31.01;37.37;99618.88;5052253;28;20024;-37
2022/08/29 06:04:52;;;;;;;11.30;7.82;;;;;;;31.87;35.82;99627.03;5052802;28;20029;-37
2022/08/29 06:07:18;;;;;;;15.98;7.85;;;;;;;31.70;35.66;99619.03;5052692;28;20032;-37
2022/08/29 06:09:44;;;;;;;15.82;8.13;;;;;;;31.33;36.44;99622.66;5052638;28;20029;-37
2022/08/29 06:12:12;;;;;;;12.88;7.53;;;;;;;31.80;35.61;99626.81;5052035;28;20455;-37
2022/08/29 06:14:38;;;;;;;18.45;8.15;;;;;;;32.12;35.28;99625.00;5052350;28;20031;-36
2022/08/29 06:17:05;;;;;;;14.63;7.00;;;;;;;33.32;33.24;99632.34;5051794;28;20451;-36
2022/08/29 06:19:33;;;;;;;12.13;7.07;;;;;;;33.92;32.03;99621.00;5051792;28;20044;-36
2022/08/29 06:22:00;;;;;;;;;;;;;;;33.53;32.43;99626.50;5052216;28;20033;-36
2022/08/29 06:24:25;;;;;;;16.00;8.48;;;;;;;33.58;32.81;99619.88;5052031;28;19995;-37
2022/08/29 06:26:50;;;;;;;16.95;7.60;;;;;;;33.69;33.03;99620.94;5051935;28;20104;-37
2022/08/29 06:29:16;;;;;;;14.20;7.28;;;;;;;34.01;32.57;99626.31;5052135;28;20423;-36
2022/08/29 06:31:42;;;;;;;20.15;7.18;;;;;;;34.70;31.49;99631.16;5049685;28;20025;-36
2022/08/29 06:34:08;;;;;;;14.38;6.82;;;;;;;34.78;30.71;99622.59;5066343;28;20404;-37
2022/08/29 06:36:35;;;;;;;18.50;6.70;;;;;;;34.48;31.90;99619.69;5052127;28;20452;-36
2022/08/29 06:39:05;;;;;;;16.05;7.20;;;;;;;34.66;30.91;99626.34;5052377;28;20031;-37
2022/08/29 06:41:31;;;;;;;18.98;6.97;;;;;;;35.24;30.58;99622.56;5051300;28;20103;-37
2022/08/29 06:43:57;;;;;;;18.13;7.10;;;;;;;35.48;29.48;99619.72;5051954;28;20120;-37
2022/08/29 06:46:28;;;;;;;14.23;6.70;;;;;;;35.13;30.49;99621.59;5051438;28;20052;-37
2022/08/29 06:48:55;;;;;;;12.63;5.78;;;;;;;35.25;29.70;99615.06;5051071;28;20540;-37
2022/08/29 06:51:22;;;;;;;13.90;6.00;;;;;;;35.40;29.63;99624.38;5058174;28;20024;-37
2022/08/29 06:53:48;;;;;;;17.45;6.30;;;;;;;35.84;29.43;99623.75;5060136;28;20071;-37
2022/08/29 06:56:14;;;;;;;12.63;5.75;;;;;;;35.73;29.27;99617.28;5054902;28;20033;-38
2022/08/29 06:58:40;;;;;;;13.57;5.72;;;;;;;35.52;29.72;99626.09;5048814;28;20048;-37
2022/08/29 07:01:13;;;;;;;13.80;5.97;;;;;;;35.70;29.41;99627.16;5054035;28;20096;-36
2022/08/29 07:03:40;;;;;;;15.60;6.63;;;;;;;36.32;28.57;99625.88;5051468;28;20021;-36
2022/08/29 07:06:06;;;;;;;11.82;5.70;;;;;;;36.27;28.23;99629.81;5046073;28;20048;-37
2022/08/29 07:08:32;;;;;;;14.60;5.68;;;;;;;36.18;28.57;99634.84;5051958;28;20439;-45
2022/08/29 07:10:58;;;;;;;15.32;5.80;;;;;;;36.28;28.24;99631.38;5055361;28;20523;-42
2022/08/29 07:13:23;;;;;;;13.85;6.57;;;;;;;36.25;28.09;99634.13;5052577;28;20065;-43
2022/08/29 07:15:49;;;;;;;16.63;7.68;;;;;;;36.83;27.31;99624.38;5048567;28;20115;-44
2022/08/29 07:18:14;;;;;;;16.05;5.75;;;;;;;36.37;28.06;99629.09;5056494;28;20033;-44
2022/08/29 07:20:40;;;;;;;15.73;5.95;;;;;;;36.48;27.60;99623.66;5061523;28;20024;-43
2022/08/29 07:23:06;;;;;;;15.18;5.82;;;;;;;36.50;27.28;99628.81;5054156;28;20100;-44
2022/08/29 07:25:31;;;;;;;13.35;5.57;;;;;;;37.47;26.06;99624.00;5051224;28;20031;-43
2022/08/29 07:27:58;;;;;;;12.90;5.50;;;;;;;37.02;26.87;99626.09;5050673;28;20057;-43
2022/08/29 07:30:24;;;;;;;9.23;4.97;;;;;;;36.82;26.81;99620.78;5051126;28;20040;-42
2022/08/29 07:32:50;;;;;;;12.15;5.05;;;;;;;37.10;26.52;99627.75;5049754;28;20037;-42
2022/08/29 07:35:17;;;;;;;16.52;5.47;;;;;;;36.83;27.05;99619.63;5051012;28;20346;-42
2022/08/29 07:37:43;;;;;;;12.07;5.40;;;;;;;37.62;25.83;99630.44;5050841;28;20032;-48
2022/08/29 07:40:11;;;;;;;14.13;5.15;;;;;;;37.30;26.25;99629.09;5051063;28;20025;-43
2022/08/29 07:42:37;;;;;;;;;;;;;;;37.00;27.11;99626.50;5051548;28;20021;-44
2022/08/29 07:45:07;;;;;;;9.90;5.25;;;;;;;37.16;26.68;99623.44;5050678;28;19912;-42
2022/08/29 07:47:33;;;;;;;12.15;5.38;;;;;;;38.05;25.75;99628.63;5050595;28;20021;-42
2022/08/29 07:50:00;;;;;;;9.00;5.20;;;;;;;37.55;26.13;99622.88;5050998;28;20074;-44
2022/08/29 07:52:27;;;;;;;18.98;5.50;;;;;;;37.66;25.83;99620.16;5051109;28;20286;-44
2022/08/29 07:54:53;;;;;;;13.05;5.50;;;;;;;37.70;26.13;99620.97;5051099;28;20444;-43
2022/08/29 07:57:19;;;;;;;12.10;5.32;;;;;;;37.78;25.72;99622.59;5050992;28;20025;-44
2022/08/29 07:59:44;;;;;;;15.00;5.30;;;;;;;37.52;26.09;99618.88;5050093;28;20091;-43
2022/08/29 08:02:09;;;;;;;11.23;4.68;;;;;;;37.87;25.00;99616.66;5050125;28;20132;-43
2022/08/29 08:04:35;;;;;;;12.13;4.90;;;;;;;37.68;25.15;99609.47;5050326;28;20032;-45
2022/08/29 08:07:01;;;;;;;15.75;5.50;;;;;;;37.89;25.18;99603.19;5050389;28;20028;-45
2022/08/29 08:09:26;;;;;;;12.32;5.85;;;;;;;36.82;27.32;99598.63;5050445;28;20028;-45
2022/08/29 08:11:52;;;;;;;15.18;5.38;;;;;;;37.11;26.42;99598.81;5050779;28;20020;-43
2022/08/29 08:14:17;;;;;;;10.98;5.47;;;;;;;37.58;26.07;99597.09;5049246;28;20433;-46
2022/08/29 08:16:43;;;;;;;10.90;5.00;;;;;;;37.97;25.23;99601.22;5050193;28;20611;-44
2022/08/29 08:19:09;;;;;;;16.98;5.18;;;;;;;38.60;24.75;99596.22;5050231;28;20075;-44
2022/08/29 08:21:34;;;;;;;8.32;4.93;;;;;;;38.32;25.10;99595.75;5050042;28;20151;-46
2022/08/29 08:24:00;;;;;;;9.65;5.25;;;;;;;38.01;24.36;99591.72;5050691;28;20079;-44
2022/08/29 08:26:25;;;;;;;14.23;5.72;;;;;;;37.93;24.66;99593.69;5049788;28;20024;-44
2022/08/29 08:28:52;;;;;;;11.18;4.88;;;;;;;37.93;24.81;99604.00;5050125;28;20029;-46
2022/08/29 08:31:19;;;;;;;9.57;5.13;;;;;;;38.83;24.03;99596.59;5049825;28;20039;-47
2022/08/29 08:33:45;;;;;;;10.60;5.22;;;;;;;38.23;24.32;99600.94;5049551;28;20029;-44
2022/08/29 08:36:16;;;;;;;12.45;5.18;;;;;;;38.03;24.30;99599.66;5050017;28;20021;-46
2022/08/29 08:38:43;;;;;;;13.93;5.43;;;;;;;37.56;24.42;99593.94;5048266;28;20029;-44
2022/08/29 08:41:34;;;;;;;13.75;5.30;;;;;;;38.91;23.35;99594.59;5047792;28;20099;-44
2022/08/29 08:44:06;;;;;;;10.32;5.60;;;;;;;38.48;24.50;99587.06;5048487;28;20021;-44
2022/08/29 08:46:49;;;;;;;9.98;4.88;;;;;;;38.08;24.79;99586.22;5048585;28;20104;-46
2022/08/29 08:49:29;;;;;;;10.63;4.90;;;;;;;38.30;24.41;99589.03;5048335;28;20120;-44
2022/08/29 08:52:04;;;;;;;15.32;5.40;;;;;;;38.26;24.55;99593.78;5048298;28;20031;-44
2022/08/29 08:54:35;;;;;;;8.60;5.22;;;;;;;38.72;23.75;99577.13;5048576;28;20037;-43
2022/08/29 08:57:09;;;;;;;11.07;5.10;;;;;;;38.27;23.93;99582.28;5059032;28;20057;-44
2022/08/29 08:59:44;;;;;;;11.55;5.18;;;;;;;38.44;24.88;99575.16;5049316;28;20021;-45
2022/08/29 09:02:44;;;;;;;8.48;5.18;;;;;;;38.44;24.25;99569.59;5047405;28;20036;-37
2022/08/29 09:05:27;;;;;;;16.83;5.45;;;;;;;38.86;24.19;99572.72;5050032;28;20029;-37
2022/08/29 09:08:11;;;;;;;8.52;5.30;;;;;;;38.23;24.81;99575.13;5049582;28;20025;-38
2022/08/29 09:10:46;;;;;;;14.02;5.22;;;;;;;38.26;24.50;99575.13;5049930;28;20084;-36
2022/08/29 09:13:23;;;;;;;11.35;5.03;;;;;;;38.03;24.25;99574.69;5048709;28;20033;-37
2022/08/29 09:15:55;;;;;;;11.02;5.28;;;;;;;38.34;24.28;99562.81;5050108;28;20029;-37
2022/08/29 09:18:43;;;;;;;10.85;5.40;;;;;;;38.17;23.87;99554.47;5049182;28;20037;-37
2022/08/29 09:21:22;;;;;;;15.05;5.40;;;;;;;37.33;25.05;99561.72;5049640;28;20453;-36
2022/08/29 09:23:47;;;;;;;;;;;;;;;37.32;24.80;99556.59;5049990;28;20078;-38
2022/08/29 09:26:19;;;;;;;13.30;5.73;;;;;;;37.54;24.87;99560.22;5058042;28;19913;-36
2022/08/29 09:28:44;;;;;;;11.05;5.93;;;;;;;38.18;24.22;99556.09;5060665;28;20065;-37
2022/08/29 09:31:24;;;;;;;9.18;5.28;;;;;;;37.98;24.25;99547.28;5063119;28;20463;-37
2022/08/29 09:34:02;;;;;;;11.75;6.25;;;;;;;38.13;24.65;99549.72;5067150;28;20025;-38
2022/08/29 09:36:47;;;;;;;13.80;5.40;;;;;;;38.54;23.42;99545.78;5066366;28;20021;-37
2022/08/29 09:39:18;;;;;;;12.63;7.20;;;;;;;39.06;23.19;99548.09;5059324;28;20029;-37
2022/08/29 09:41:47;;;;;;;11.38;5.57;;;;;;;38.61;23.42;99539.41;5051659;28;20017;-37
2022/08/29 09:44:22;;;;;;;15.23;6.30;;;;;;;38.55;23.88;99541.81;5051763;28;20063;-37
2022/08/29 09:47:05;;;;;;;11.07;5.75;;;;;;;38.75;23.37;99533.03;5051538;28;20023;-37
2022/08/29 09:49:31;;;;;;;9.90;5.90;;;;;;;38.60;23.68;99540.63;5052255;28;20500;-37
2022/08/29 09:52:15;;;;;;;10.50;5.40;;;;;;;38.29;23.71;99535.44;5051926;28;20049;-37
2022/08/29 09:54:42;;;;;;;11.25;5.28;;;;;;;38.56;24.09;99543.41;5051485;28;20029;-37
2022/08/29 09:57:09;;;;;;;12.30;5.10;;;;;;;38.45;24.01;99539.81;5059132;28;20032;-37
2022/08/29 09:59:38;;;;;;;12.80;5.40;;;;;;;38.79;24.34;99537.41;5048933;28;20077;-37
2022/08/29 10:02:25;;;;;;;11.82;5.45;;;;;;;38.82;23.78;99533.84;5054087;28;20036;-37
2022/08/29 10:04:52;;;;;;;13.10;5.20;;;;;;;38.66;24.10;99525.91;5062162;28;20364;-37
2022/08/29 10:07:20;;;;;;;11.80;5.40;;;;;;;38.80;23.02;99519.53;5051694;28;20185;-37
2022/08/29 10:10:04;;;;;;;14.23;5.38;;;;;;;39.50;22.75;99521.72;5052013;28;20028;-37
2022/08/29 10:13:00;;;;;;;14.15;5.25;;;;;;;39.21;22.45;99515.47;5052117;28;20564;-43
2022/08/29 10:15:32;;;;;;;10.50;5.15;;;;;;;38.70;22.37;99512.78;5052819;28;20041;-43
2022/08/29 10:18:19;;;;;;;8.13;5.18;;;;;;;38.11;22.78;99504.09;5051500;28;20037;-43
2022/08/29 10:20:54;;;;;;;13.07;5.40;;;;;;;38.89;22.95;99500.44;5052765;28;20258;-45
2022/08/29 10:23:48;;;;;;;11.38;5.00;;;;;;;38.39;22.58;99497.72;5051280;28;20021;-46
2022/08/29 10:26:19;;;;;;;11.60;4.78;;;;;;;38.29;23.34;99495.75;5051842;28;20051;-46
2022/08/29 10:28:54;;;;;;;11.90;5.18;;;;;;;37.86;22.97;99498.47;5051974;28;20111;-45
2022/08/29 10:31:32;;;;;;;12.73;4.80;;;;;;;38.60;21.93;99488.59;5050187;28;20025;-47
2022/08/29 10:34:30;;;;;;;14.73;5.07;;;;;;;37.87;22.46;99486.19;5050451;28;20049;-45
2022/08/29 10:37:03;;;;;;;11.52;4.97;;;;;;;37.42;22.75;99478.13;5049276;28;20033;-45
2022/08/29 10:39:44;;;;;;;11.57;5.38;;;;;;;37.89;22.69;99483.78;5050608;28;20027;-44
2022/08/29 10:42:14;;;;;;;9.55;4.90;;;;;;;39.14;21.65;99485.69;5051536;28;20079;-46
2022/08/29 10:44:42;;;;;;;11.05;4.80;;;;;;;38.97;22.36;99483.72;5051432;28;20021;-43
2022/08/29 10:47:44;;;;;;;12.10;4.80;;;;;;;38.99;22.38;99484.94;5051742;28;20056;-46
2022/08/29 10:50:45;;;;;;;12.45;4.97;;;;;;;39.43;22.08;99479.97;5051560;28;20036;-45
2022/08/29 10:53:15;;;;;;;8.70;4.72;;;;;;;38.89;22.11;99475.41;5051840;28;20025;-45
2022/08/29 10:55:46;;;;;;;8.60;4.80;;;;;;;38.84;21.48;99475.84;5051708;28;20079;-45
2022/08/29 10:58:30;;;;;;;10.48;4.95;;;;;;;38.77;22.38;99473.06;5051762;28;20053;-46
2022/08/29 11:01:00;;;;;;;8.77;4.97;;;;;;;39.15;21.87;99472.56;5051144;28;20017;-44
2022/08/29 11:03:59;;;;;;;11.25;5.50;;;;;;;39.60;21.91;99462.41;5051789;28;20025;-46
2022/08/29 11:06:30;;;;;;;12.40;5.35;;;;;;;40.16;20.83;99462.41;5042512;28;20045;-45
2022/08/29 11:09:20;;;;;;;9.52;5.10;;;;;;;39.57;20.56;99459.66;5051661;28;20071;-47
2022/08/29 11:12:29;;;;;;;12.07;4.80;;;;;;;39.08;20.93;99454.72;5051192;28;20114;-45
2022/08/29 11:15:22;;;;;;;11.35;4.97;;;;;;;39.73;20.52;99454.38;5036388;28;20044;-45
2022/08/29 11:18:00;;;;;;;13.07;4.68;;;;;;;40.14;21.22;99441.75;5050981;28;20056;-47
2022/08/29 11:20:31;;;;;;;14.88;4.82;;;;;;;39.68;21.73;99441.69;5051741;28;20029;-45
2022/08/29 11:23:10;;;;;;;11.88;4.40;;;;;;;39.82;21.30;99434.41;5051710;28;20025;-43
2022/08/29 11:25:40;;;;;;;9.32;4.78;;;;;;;40.51;20.17;99432.63;5051395;28;20083;-44
2022/08/29 11:28:26;;;;;;;9.80;4.60;;;;;;;40.49;20.37;99417.53;5051019;28;20457;-42
2022/08/29 11:30:51;;;;;;;9.50;4.20;;;;;;;40.41;20.43;99423.19;5049219;28;20113;-44
2022/08/29 11:34:02;;;;;;;9.93;4.35;;;;;;;40.20;19.89;99421.38;5048806;28;20477;-46
2022/08/29 11:36:36;;;;;;;16.20;4.97;;;;;;;40.14;20.61;99405.53;5007138;28;20036;-43
2022/08/29 11:39:18;;;;;;;12.75;5.13;;;;;;;39.61;20.79;99415.88;5007261;28;20162;-46
2022/08/29 11:41:47;;;;;;;12.93;5.05;;;;;;;39.14;22.21;99409.78;5034167;28;20056;-46